sensor_id;sensor_type;location;lat;lon;timestamp;temperature;humidity
15013;DHT22;7603;49.432;11.418;2022-11-20T00:01:12;0.90;99.90
15013;DHT22;7603;49.432;11.418;2022-11-20T00:03:38;0.80;99.90
15013;DHT22;7603;49.432;11.418;2022-11-20T00:06:06;0.90;99.90
15013;DHT22;7603;49.432;11.418;2022-11-20T00:08:33;0.80;99.90
15013;DHT22;7603;49.432;11.418;2022-11-20T00:11:08;0.90;99.90
15013;DHT22;7603;49.432;11.418;2022-11-20T00:13:35;0.90;99.90
15013;DHT22;7603;49.432;11.418;2022-11-20T00:16:04;0.90;99.90
15013;DHT22;7603;49.432;11.418;2022-11-20T00:18:30;0.90;99.90
15013;DHT22;7603;49.432;11.418;2022-11-20T00:21:05;0.90;99.90
15013;DHT22;7603;49.432;11.418;2022-11-20T00:23:31;0.90;99.90
15013;DHT22;7603;49.432;11.418;2022-11-20T00:26:00;1.00;99.90
15013;DHT22;7603;49.432;11.418;2022-11-20T00:28:26;1.00;99.90
15013;DHT22;7603;49.432;11.418;2022-11-20T00:30:51;1.00;99.90
15013;DHT22;7603;49.432;11.418;2022-11-20T00:33:17;1.10;99.90
15013;DHT22;7603;49.432;11.418;2022-11-20T00:35:42;1.10;99.90
15013;DHT22;7603;49.432;11.418;2022-11-20T00:38:08;1.10;99.90
15013;DHT22;7603;49.432;11.418;2022-11-20T00:40:33;1.10;99.90
15013;DHT22;7603;49.432;11.418;2022-11-20T00:42:59;1.20;99.90
15013;DHT22;7603;49.432;11.418;2022-11-20T00:45:25;1.20;99.90
15013;DHT22;7603;49.432;11.418;2022-11-20T00:47:50;1.20;99.90
15013;DHT22;7603;49.432;11.418;2022-11-20T00:50:16;1.20;99.90
15013;DHT22;7603;49.432;11.418;2022-11-20T00:52:41;1.20;99.90
15013;DHT22;7603;49.432;11.418;2022-11-20T00:55:07;1.20;99.90
15013;DHT22;7603;49.432;11.418;2022-11-20T00:57:33;1.10;99.90
15013;DHT22;7603;49.432;11.418;2022-11-20T00:59:58;1.10;99.90
15013;DHT22;7603;49.432;11.418;2022-11-20T01:02:24;1.10;99.90
15013;DHT22;7603;49.432;11.418;2022-11-20T01:04:49;1.10;99.90
15013;DHT22;7603;49.432;11.418;2022-11-20T01:07:15;1.10;99.90
15013;DHT22;7603;49.432;11.418;2022-11-20T01:09:41;1.10;99.90
15013;DHT22;7603;49.432;11.418;2022-11-20T01:12:06;1.10;99.90
15013;DHT22;7603;49.432;11.418;2022-11-20T01:14:32;1.10;99.90
15013;DHT22;7603;49.432;11.418;2022-11-20T01:16:57;1.20;99.90
15013;DHT22;7603;49.432;11.418;2022-11-20T01:19:23;1.20;99.90
15013;DHT22;7603;49.432;11.418;2022-11-20T01:21:52;1.20;99.90
15013;DHT22;7603;49.432;11.418;2022-11-20T01:24:19;1.20;99.90
15013;DHT22;7603;49.432;11.418;2022-11-20T01:26:47;1.20;99.90
15013;DHT22;7603;49.432;11.418;2022-11-20T01:29:15;1.20;99.90
15013;DHT22;7603;49.432;11.418;2022-11-20T01:31:41;1.20;99.90
15013;DHT22;7603;49.432;11.418;2022-11-20T01:34:11;1.20;99.90
15013;DHT22;7603;49.432;11.418;2022-11-20T01:36:39;1.20;99.90
15013;DHT22;7603;49.432;11.418;2022-11-20T01:39:10;1.30;99.90
15013;DHT22;7603;49.432;11.418;2022-11-20T01:41:35;1.30;99.90
15013;DHT22;7603;49.432;11.418;2022-11-20T01:44:23;1.20;99.90
15013;DHT22;7603;49.432;11.418;2022-11-20T01:47:07;1.30;99.90
15013;DHT22;7603;49.432;11.418;2022-11-20T01:49:38;1.30;99.90
15013;DHT22;7603;49.432;11.418;2022-11-20T01:52:10;1.40;99.90
15013;DHT22;7603;49.432;11.418;2022-11-20T01:54:42;1.30;99.90
15013;DHT22;7603;49.432;11.418;2022-11-20T01:57:10;1.40;99.90
15013;DHT22;7603;49.432;11.418;2022-11-20T01:59:41;1.40;99.90
15013;DHT22;7603;49.432;11.418;2022-11-20T02:02:10;1.40;99.90
15013;DHT22;7603;49.432;11.418;2022-11-20T02:04:35;1.40;99.90
15013;DHT22;7603;49.432;11.418;2022-11-20T02:07:02;1.40;99.90
15013;DHT22;7603;49.432;11.418;2022-11-20T02:09:30;1.40;99.90
15013;DHT22;7603;49.432;11.418;2022-11-20T02:11:56;1.40;99.90
15013;DHT22;7603;49.432;11.418;2022-11-20T02:14:23;1.40;99.90
15013;DHT22;7603;49.432;11.418;2022-11-20T02:16:49;1.40;99.90
15013;DHT22;7603;49.432;11.418;2022-11-20T02:19:28;1.40;99.90
15013;DHT22;7603;49.432;11.418;2022-11-20T02:24:19;1.40;99.90
15013;DHT22;7603;49.432;11.418;2022-11-20T02:27:08;1.40;99.90
15013;DHT22;7603;49.432;11.418;2022-11-20T02:30:02;1.40;99.90
15013;DHT22;7603;49.432;11.418;2022-11-20T02:32:33;1.40;99.90
15013;DHT22;7603;49.432;11.418;2022-11-20T02:35:10;1.40;99.90
15013;DHT22;7603;49.432;11.418;2022-11-20T02:37:59;1.40;99.90
15013;DHT22;7603;49.432;11.418;2022-11-20T02:40:26;1.40;99.90
15013;DHT22;7603;49.432;11.418;2022-11-20T02:42:52;1.50;99.90
15013;DHT22;7603;49.432;11.418;2022-11-20T02:45:18;1.50;99.90
15013;DHT22;7603;49.432;11.418;2022-11-20T02:47:44;1.50;99.90
15013;DHT22;7603;49.432;11.418;2022-11-20T02:50:09;1.50;99.90
15013;DHT22;7603;49.432;11.418;2022-11-20T02:52:35;1.50;99.90
15013;DHT22;7603;49.432;11.418;2022-11-20T02:55:00;1.50;99.90
15013;DHT22;7603;49.432;11.418;2022-11-20T02:57:26;1.60;99.90
15013;DHT22;7603;49.432;11.418;2022-11-20T02:59:52;1.60;99.90
15013;DHT22;7603;49.432;11.418;2022-11-20T03:02:18;1.60;99.90
15013;DHT22;7603;49.432;11.418;2022-11-20T03:04:44;1.60;99.90
15013;DHT22;7603;49.432;11.418;2022-11-20T03:07:10;1.60;99.90
15013;DHT22;7603;49.432;11.418;2022-11-20T03:09:35;1.60;99.90
15013;DHT22;7603;49.432;11.418;2022-11-20T03:12:01;1.70;99.90
15013;DHT22;7603;49.432;11.418;2022-11-20T03:14:26;1.70;99.90
15013;DHT22;7603;49.432;11.418;2022-11-20T03:16:52;1.70;99.90
15013;DHT22;7603;49.432;11.418;2022-11-20T03:19:18;1.70;99.90
15013;DHT22;7603;49.432;11.418;2022-11-20T03:21:43;1.70;99.90
15013;DHT22;7603;49.432;11.418;2022-11-20T03:24:09;1.70;99.90
15013;DHT22;7603;49.432;11.418;2022-11-20T03:26:35;1.70;99.90
15013;DHT22;7603;49.432;11.418;2022-11-20T03:29:03;1.70;99.90
15013;DHT22;7603;49.432;11.418;2022-11-20T03:31:32;1.70;99.90
15013;DHT22;7603;49.432;11.418;2022-11-20T03:33:59;1.70;99.90
15013;DHT22;7603;49.432;11.418;2022-11-20T03:36:26;1.70;99.90
15013;DHT22;7603;49.432;11.418;2022-11-20T03:38:53;1.80;99.90
15013;DHT22;7603;49.432;11.418;2022-11-20T03:41:21;1.80;99.90
15013;DHT22;7603;49.432;11.418;2022-11-20T03:43:55;1.80;99.90
15013;DHT22;7603;49.432;11.418;2022-11-20T03:46:21;1.80;99.90
15013;DHT22;7603;49.432;11.418;2022-11-20T03:48:47;1.80;99.90
15013;DHT22;7603;49.432;11.418;2022-11-20T03:51:16;1.80;99.90
15013;DHT22;7603;49.432;11.418;2022-11-20T03:53:43;1.80;99.90
15013;DHT22;7603;49.432;11.418;2022-11-20T03:56:09;1.80;99.90
15013;DHT22;7603;49.432;11.418;2022-11-20T03:58:37;1.80;99.90
15013;DHT22;7603;49.432;11.418;2022-11-20T04:01:08;1.80;99.90
15013;DHT22;7603;49.432;11.418;2022-11-20T04:03:35;1.80;99.90
15013;DHT22;7603;49.432;11.418;2022-11-20T04:06:09;1.70;99.90
15013;DHT22;7603;49.432;11.418;2022-11-20T04:08:35;1.80;99.90
15013;DHT22;7603;49.432;11.418;2022-11-20T04:11:14;1.70;99.90
15013;DHT22;7603;49.432;11.418;2022-11-20T04:13:40;1.70;99.90
15013;DHT22;7603;49.432;11.418;2022-11-20T04:16:06;1.70;99.90
15013;DHT22;7603;49.432;11.418;2022-11-20T04:18:32;1.70;99.90
15013;DHT22;7603;49.432;11.418;2022-11-20T04:20:59;1.70;99.90
15013;DHT22;7603;49.432;11.418;2022-11-20T04:23:25;1.70;99.90
15013;DHT22;7603;49.432;11.418;2022-11-20T04:25:51;1.70;99.90
15013;DHT22;7603;49.432;11.418;2022-11-20T04:28:16;1.70;99.90
15013;DHT22;7603;49.432;11.418;2022-11-20T04:30:42;1.70;99.90
15013;DHT22;7603;49.432;11.418;2022-11-20T04:33:08;1.80;99.90
15013;DHT22;7603;49.432;11.418;2022-11-20T04:35:35;1.80;99.90
15013;DHT22;7603;49.432;11.418;2022-11-20T04:38:01;1.80;99.90
15013;DHT22;7603;49.432;11.418;2022-11-20T04:40:27;1.80;99.90
15013;DHT22;7603;49.432;11.418;2022-11-20T04:42:54;1.90;99.90
15013;DHT22;7603;49.432;11.418;2022-11-20T04:45:19;1.90;99.90
15013;DHT22;7603;49.432;11.418;2022-11-20T04:47:45;1.80;99.90
15013;DHT22;7603;49.432;11.418;2022-11-20T04:50:11;1.80;99.90
15013;DHT22;7603;49.432;11.418;2022-11-20T04:52:36;1.90;99.90
15013;DHT22;7603;49.432;11.418;2022-11-20T04:55:03;1.80;99.90
15013;DHT22;7603;49.432;11.418;2022-11-20T04:57:28;1.80;99.90
15013;DHT22;7603;49.432;11.418;2022-11-20T04:59:54;1.80;99.90
15013;DHT22;7603;49.432;11.418;2022-11-20T05:02:20;1.80;99.90
15013;DHT22;7603;49.432;11.418;2022-11-20T05:04:45;1.80;99.90
15013;DHT22;7603;49.432;11.418;2022-11-20T05:07:11;1.80;99.90
15013;DHT22;7603;49.432;11.418;2022-11-20T05:09:37;1.90;99.90
15013;DHT22;7603;49.432;11.418;2022-11-20T05:12:02;1.90;99.90
15013;DHT22;7603;49.432;11.418;2022-11-20T05:14:28;1.90;99.90
15013;DHT22;7603;49.432;11.418;2022-11-20T05:16:54;1.90;99.90
15013;DHT22;7603;49.432;11.418;2022-11-20T05:19:19;1.90;99.90
15013;DHT22;7603;49.432;11.418;2022-11-20T05:21:45;1.90;99.90
15013;DHT22;7603;49.432;11.418;2022-11-20T05:24:10;1.90;99.90
15013;DHT22;7603;49.432;11.418;2022-11-20T05:26:36;1.90;99.90
15013;DHT22;7603;49.432;11.418;2022-11-20T05:29:02;1.90;99.90
15013;DHT22;7603;49.432;11.418;2022-11-20T05:31:27;1.90;99.90
15013;DHT22;7603;49.432;11.418;2022-11-20T05:33:53;1.90;99.90
15013;DHT22;7603;49.432;11.418;2022-11-20T05:36:19;1.90;99.90
15013;DHT22;7603;49.432;11.418;2022-11-20T05:38:45;2.00;99.90
15013;DHT22;7603;49.432;11.418;2022-11-20T05:43:37;2.00;99.90
15013;DHT22;7603;49.432;11.418;2022-11-20T05:46:04;2.00;99.90
15013;DHT22;7603;49.432;11.418;2022-11-20T05:48:30;2.00;99.90
15013;DHT22;7603;49.432;11.418;2022-11-20T05:50:58;2.10;99.90
15013;DHT22;7603;49.432;11.418;2022-11-20T05:53:24;2.10;99.90
15013;DHT22;7603;49.432;11.418;2022-11-20T05:56:00;2.10;99.90
15013;DHT22;7603;49.432;11.418;2022-11-20T05:58:26;2.10;99.90
15013;DHT22;7603;49.432;11.418;2022-11-20T06:00:52;2.20;99.90
15013;DHT22;7603;49.432;11.418;2022-11-20T06:03:18;2.20;99.90
15013;DHT22;7603;49.432;11.418;2022-11-20T06:05:44;2.20;99.90
15013;DHT22;7603;49.432;11.418;2022-11-20T06:08:09;2.20;99.90
15013;DHT22;7603;49.432;11.418;2022-11-20T06:10:35;2.20;99.90
15013;DHT22;7603;49.432;11.418;2022-11-20T06:13:00;2.20;99.90
15013;DHT22;7603;49.432;11.418;2022-11-20T06:15:26;2.30;99.90
15013;DHT22;7603;49.432;11.418;2022-11-20T06:17:55;2.30;99.90
15013;DHT22;7603;49.432;11.418;2022-11-20T06:20:21;2.30;99.90
15013;DHT22;7603;49.432;11.418;2022-11-20T06:22:47;2.40;99.90
15013;DHT22;7603;49.432;11.418;2022-11-20T06:25:13;2.30;99.90
15013;DHT22;7603;49.432;11.418;2022-11-20T06:27:39;2.30;99.90
15013;DHT22;7603;49.432;11.418;2022-11-20T06:30:05;2.30;99.90
15013;DHT22;7603;49.432;11.418;2022-11-20T06:32:32;2.30;99.90
15013;DHT22;7603;49.432;11.418;2022-11-20T06:34:57;2.30;99.90
15013;DHT22;7603;49.432;11.418;2022-11-20T06:37:23;2.30;99.90
15013;DHT22;7603;49.432;11.418;2022-11-20T06:39:49;2.30;99.90
15013;DHT22;7603;49.432;11.418;2022-11-20T06:42:14;2.30;99.90
15013;DHT22;7603;49.432;11.418;2022-11-20T06:44:40;2.30;99.90
15013;DHT22;7603;49.432;11.418;2022-11-20T06:47:05;2.40;99.90
15013;DHT22;7603;49.432;11.418;2022-11-20T06:49:31;2.40;99.90
15013;DHT22;7603;49.432;11.418;2022-11-20T06:51:57;2.40;99.90
15013;DHT22;7603;49.432;11.418;2022-11-20T06:54:23;2.40;99.90
15013;DHT22;7603;49.432;11.418;2022-11-20T06:56:49;2.50;99.90
15013;DHT22;7603;49.432;11.418;2022-11-20T06:59:14;2.40;99.90
15013;DHT22;7603;49.432;11.418;2022-11-20T07:01:40;2.50;99.90
15013;DHT22;7603;49.432;11.418;2022-11-20T07:04:06;2.50;99.90
15013;DHT22;7603;49.432;11.418;2022-11-20T07:06:31;2.50;99.90
15013;DHT22;7603;49.432;11.418;2022-11-20T07:08:57;2.50;99.90
15013;DHT22;7603;49.432;11.418;2022-11-20T07:11:23;2.60;99.90
15013;DHT22;7603;49.432;11.418;2022-11-20T07:13:49;2.60;99.90
15013;DHT22;7603;49.432;11.418;2022-11-20T07:16:15;2.60;99.90
15013;DHT22;7603;49.432;11.418;2022-11-20T07:18:40;2.60;99.90
15013;DHT22;7603;49.432;11.418;2022-11-20T07:21:08;2.70;99.90
15013;DHT22;7603;49.432;11.418;2022-11-20T07:23:35;2.70;99.90
15013;DHT22;7603;49.432;11.418;2022-11-20T07:26:09;2.70;99.90
15013;DHT22;7603;49.432;11.418;2022-11-20T07:28:36;2.80;99.90
15013;DHT22;7603;49.432;11.418;2022-11-20T07:31:02;2.80;99.90
15013;DHT22;7603;49.432;11.418;2022-11-20T07:33:28;2.80;99.90
15013;DHT22;7603;49.432;11.418;2022-11-20T07:35:54;2.90;99.90
15013;DHT22;7603;49.432;11.418;2022-11-20T07:38:20;2.90;99.90
15013;DHT22;7603;49.432;11.418;2022-11-20T07:40:45;2.90;99.90
15013;DHT22;7603;49.432;11.418;2022-11-20T07:43:11;2.90;99.90
15013;DHT22;7603;49.432;11.418;2022-11-20T07:45:37;2.90;99.90
15013;DHT22;7603;49.432;11.418;2022-11-20T07:48:03;2.80;99.90
15013;DHT22;7603;49.432;11.418;2022-11-20T07:50:28;2.90;99.90
15013;DHT22;7603;49.432;11.418;2022-11-20T07:53:04;2.90;99.90
15013;DHT22;7603;49.432;11.418;2022-11-20T07:55:31;2.90;99.90
15013;DHT22;7603;49.432;11.418;2022-11-20T07:57:56;2.90;99.90
15013;DHT22;7603;49.432;11.418;2022-11-20T08:00:22;2.90;99.90
15013;DHT22;7603;49.432;11.418;2022-11-20T08:02:48;3.00;99.90
15013;DHT22;7603;49.432;11.418;2022-11-20T08:05:14;2.90;99.90
15013;DHT22;7603;49.432;11.418;2022-11-20T08:07:41;2.90;99.90
15013;DHT22;7603;49.432;11.418;2022-11-20T08:10:09;3.10;99.90
15013;DHT22;7603;49.432;11.418;2022-11-20T08:12:35;3.00;99.90
15013;DHT22;7603;49.432;11.418;2022-11-20T08:15:19;3.00;99.90
15013;DHT22;7603;49.432;11.418;2022-11-20T08:17:45;3.20;99.90
15013;DHT22;7603;49.432;11.418;2022-11-20T08:20:10;3.10;99.90
15013;DHT22;7603;49.432;11.418;2022-11-20T08:22:36;3.10;99.90
15013;DHT22;7603;49.432;11.418;2022-11-20T08:25:02;3.20;99.90
15013;DHT22;7603;49.432;11.418;2022-11-20T08:27:28;3.30;99.90
15013;DHT22;7603;49.432;11.418;2022-11-20T08:29:53;3.40;99.90
15013;DHT22;7603;49.432;11.418;2022-11-20T08:32:19;3.40;99.90
15013;DHT22;7603;49.432;11.418;2022-11-20T08:34:45;3.50;99.90
15013;DHT22;7603;49.432;11.418;2022-11-20T08:37:12;3.60;99.90
15013;DHT22;7603;49.432;11.418;2022-11-20T08:39:38;3.70;99.90
15013;DHT22;7603;49.432;11.418;2022-11-20T08:42:07;3.70;99.90
15013;DHT22;7603;49.432;11.418;2022-11-20T08:44:33;3.80;99.90
15013;DHT22;7603;49.432;11.418;2022-11-20T08:47:00;3.80;99.90
15013;DHT22;7603;49.432;11.418;2022-11-20T08:49:26;3.90;99.90
15013;DHT22;7603;49.432;11.418;2022-11-20T08:51:52;3.90;99.90
15013;DHT22;7603;49.432;11.418;2022-11-20T08:54:20;3.90;99.90
15013;DHT22;7603;49.432;11.418;2022-11-20T08:56:47;3.90;99.90
15013;DHT22;7603;49.432;11.418;2022-11-20T08:59:13;3.90;99.90
15013;DHT22;7603;49.432;11.418;2022-11-20T09:01:38;3.90;99.90
15013;DHT22;7603;49.432;11.418;2022-11-20T09:04:04;3.90;99.90
15013;DHT22;7603;49.432;11.418;2022-11-20T09:06:30;3.80;99.90
15013;DHT22;7603;49.432;11.418;2022-11-20T09:08:56;3.70;99.90
15013;DHT22;7603;49.432;11.418;2022-11-20T09:11:22;3.80;99.90
15013;DHT22;7603;49.432;11.418;2022-11-20T09:13:48;3.90;99.90
15013;DHT22;7603;49.432;11.418;2022-11-20T09:16:13;3.90;99.90
15013;DHT22;7603;49.432;11.418;2022-11-20T09:18:39;4.00;99.90
15013;DHT22;7603;49.432;11.418;2022-11-20T09:21:08;3.90;99.90
15013;DHT22;7603;49.432;11.418;2022-11-20T09:23:36;3.90;99.90
15013;DHT22;7603;49.432;11.418;2022-11-20T09:26:13;4.00;99.90
15013;DHT22;7603;49.432;11.418;2022-11-20T09:28:39;3.90;99.90
15013;DHT22;7603;49.432;11.418;2022-11-20T09:31:06;4.00;99.90
15013;DHT22;7603;49.432;11.418;2022-11-20T09:33:32;3.80;99.90
15013;DHT22;7603;49.432;11.418;2022-11-20T09:35:58;3.80;99.90
15013;DHT22;7603;49.432;11.418;2022-11-20T09:38:24;3.80;99.90
15013;DHT22;7603;49.432;11.418;2022-11-20T09:41:00;3.80;99.90
15013;DHT22;7603;49.432;11.418;2022-11-20T09:43:56;3.80;99.90
15013;DHT22;7603;49.432;11.418;2022-11-20T09:46:28;3.80;99.90
15013;DHT22;7603;49.432;11.418;2022-11-20T09:52:32;3.80;99.90
15013;DHT22;7603;49.432;11.418;2022-11-20T09:55:02;3.90;99.90
15013;DHT22;7603;49.432;11.418;2022-11-20T09:57:38;3.90;99.90
15013;DHT22;7603;49.432;11.418;2022-11-20T10:00:08;4.00;99.90
15013;DHT22;7603;49.432;11.418;2022-11-20T10:05:12;4.10;99.90
15013;DHT22;7603;49.432;11.418;2022-11-20T10:07:51;4.20;99.90
15013;DHT22;7603;49.432;11.418;2022-11-20T10:10:39;4.20;99.90
15013;DHT22;7603;49.432;11.418;2022-11-20T10:26:22;4.30;99.90
15013;DHT22;7603;49.432;11.418;2022-11-20T10:29:18;4.40;99.90
15013;DHT22;7603;49.432;11.418;2022-11-20T10:31:50;4.50;99.90
15013;DHT22;7603;49.432;11.418;2022-11-20T10:35:03;4.50;99.90
15013;DHT22;7603;49.432;11.418;2022-11-20T10:37:31;4.50;99.90
15013;DHT22;7603;49.432;11.418;2022-11-20T10:40:01;4.60;99.90
15013;DHT22;7603;49.432;11.418;2022-11-20T10:42:57;4.60;99.90
15013;DHT22;7603;49.432;11.418;2022-11-20T10:48:04;4.70;99.90
15013;DHT22;7603;49.432;11.418;2022-11-20T10:50:36;4.80;99.90
15013;DHT22;7603;49.432;11.418;2022-11-20T10:53:29;4.80;99.90
15013;DHT22;7603;49.432;11.418;2022-11-20T10:56:07;4.90;99.90
15013;DHT22;7603;49.432;11.418;2022-11-20T10:59:04;4.90;99.90
15013;DHT22;7603;49.432;11.418;2022-11-20T11:01:41;4.90;99.90
15013;DHT22;7603;49.432;11.418;2022-11-20T11:04:37;4.90;99.90
15013;DHT22;7603;49.432;11.418;2022-11-20T11:07:38;5.00;99.90
15013;DHT22;7603;49.432;11.418;2022-11-20T11:11:18;5.00;99.90
15013;DHT22;7603;49.432;11.418;2022-11-20T11:13:25;5.00;99.90
15013;DHT22;7603;49.432;11.418;2022-11-20T11:15:52;5.10;99.90
15013;DHT22;7603;49.432;11.418;2022-11-20T11:18:29;5.10;99.90
15013;DHT22;7603;49.432;11.418;2022-11-20T11:20:57;5.20;99.90
15013;DHT22;7603;49.432;11.418;2022-11-20T11:26:01;5.20;99.90
15013;DHT22;7603;49.432;11.418;2022-11-20T11:28:27;5.30;99.90
15013;DHT22;7603;49.432;11.418;2022-11-20T11:30:54;5.30;99.90
15013;DHT22;7603;49.432;11.418;2022-11-20T11:33:23;5.30;99.90
15013;DHT22;7603;49.432;11.418;2022-11-20T11:35:52;5.40;99.90
15013;DHT22;7603;49.432;11.418;2022-11-20T11:40:58;5.40;99.90
15013;DHT22;7603;49.432;11.418;2022-11-20T11:43:26;5.40;99.90
15013;DHT22;7603;49.432;11.418;2022-11-20T11:46:35;5.50;99.90
15013;DHT22;7603;49.432;11.418;2022-11-20T11:51:41;5.60;99.90
15013;DHT22;7603;49.432;11.418;2022-11-20T11:54:25;5.70;99.90
15013;DHT22;7603;49.432;11.418;2022-11-20T11:56:53;5.60;99.90
15013;DHT22;7603;49.432;11.418;2022-11-20T11:59:44;5.50;99.90
15013;DHT22;7603;49.432;11.418;2022-11-20T12:02:30;5.40;99.90
15013;DHT22;7603;49.432;11.418;2022-11-20T12:05:10;5.60;99.90
15013;DHT22;7603;49.432;11.418;2022-11-20T12:07:41;5.70;99.90
15013;DHT22;7603;49.432;11.418;2022-11-20T12:10:41;5.90;99.90
15013;DHT22;7603;49.432;11.418;2022-11-20T12:16:16;6.10;99.90
15013;DHT22;7603;49.432;11.418;2022-11-20T12:18:43;6.20;99.90
15013;DHT22;7603;49.432;11.418;2022-11-20T12:21:44;6.20;99.90
15013;DHT22;7603;49.432;11.418;2022-11-20T12:24:25;6.10;99.90
15013;DHT22;7603;49.432;11.418;2022-11-20T12:41:04;6.10;99.90
15013;DHT22;7603;49.432;11.418;2022-11-20T12:43:43;5.90;99.90
15013;DHT22;7603;49.432;11.418;2022-11-20T12:46:54;5.80;99.90
15013;DHT22;7603;49.432;11.418;2022-11-20T12:57:43;5.10;99.90
15013;DHT22;7603;49.432;11.418;2022-11-20T13:05:58;5.00;99.90
15013;DHT22;7603;49.432;11.418;2022-11-20T13:08:36;5.10;99.90
15013;DHT22;7603;49.432;11.418;2022-11-20T13:11:13;5.10;99.90
15013;DHT22;7603;49.432;11.418;2022-11-20T13:16:37;5.10;99.90
15013;DHT22;7603;49.432;11.418;2022-11-20T13:19:09;5.10;99.90
15013;DHT22;7603;49.432;11.418;2022-11-20T13:21:44;5.10;99.90
15013;DHT22;7603;49.432;11.418;2022-11-20T13:24:24;5.00;99.90
15013;DHT22;7603;49.432;11.418;2022-11-20T13:29:33;5.10;99.90
15013;DHT22;7603;49.432;11.418;2022-11-20T13:32:17;5.10;99.90
15013;DHT22;7603;49.432;11.418;2022-11-20T13:35:04;5.10;99.90
15013;DHT22;7603;49.432;11.418;2022-11-20T13:37:35;5.10;99.90
15013;DHT22;7603;49.432;11.418;2022-11-20T13:42:54;5.10;99.90
15013;DHT22;7603;49.432;11.418;2022-11-20T13:45:25;5.10;99.90
15013;DHT22;7603;49.432;11.418;2022-11-20T13:47:53;5.10;99.90
15013;DHT22;7603;49.432;11.418;2022-11-20T13:50:27;5.00;99.90
15013;DHT22;7603;49.432;11.418;2022-11-20T13:59:23;4.90;99.90
15013;DHT22;7603;49.432;11.418;2022-11-20T14:01:46;4.80;99.90
15013;DHT22;7603;49.432;11.418;2022-11-20T14:04:18;4.70;99.90
15013;DHT22;7603;49.432;11.418;2022-11-20T14:06:46;4.60;99.90
15013;DHT22;7603;49.432;11.418;2022-11-20T14:09:26;4.60;99.90
15013;DHT22;7603;49.432;11.418;2022-11-20T14:11:52;4.40;99.90
15013;DHT22;7603;49.432;11.418;2022-11-20T14:14:20;4.40;99.90
15013;DHT22;7603;49.432;11.418;2022-11-20T14:16:47;4.40;99.90
15013;DHT22;7603;49.432;11.418;2022-11-20T14:19:25;4.40;99.90
15013;DHT22;7603;49.432;11.418;2022-11-20T14:22:06;4.40;99.90
15013;DHT22;7603;49.432;11.418;2022-11-20T14:24:31;4.40;99.90
15013;DHT22;7603;49.432;11.418;2022-11-20T14:26:57;4.30;99.90
15013;DHT22;7603;49.432;11.418;2022-11-20T14:29:44;4.30;99.90
15013;DHT22;7603;49.432;11.418;2022-11-20T14:32:11;4.20;99.90
15013;DHT22;7603;49.432;11.418;2022-11-20T14:34:41;4.20;99.90
15013;DHT22;7603;49.432;11.418;2022-11-20T14:37:13;4.10;99.90
15013;DHT22;7603;49.432;11.418;2022-11-20T14:39:51;4.10;99.90
15013;DHT22;7603;49.432;11.418;2022-11-20T14:42:22;4.10;99.90
15013;DHT22;7603;49.432;11.418;2022-11-20T14:44:49;4.00;99.90
15013;DHT22;7603;49.432;11.418;2022-11-20T14:47:20;4.00;99.90
15013;DHT22;7603;49.432;11.418;2022-11-20T14:49:47;4.00;99.90
15013;DHT22;7603;49.432;11.418;2022-11-20T14:52:21;4.10;99.90
15013;DHT22;7603;49.432;11.418;2022-11-20T14:57:26;4.00;99.90
15013;DHT22;7603;49.432;11.418;2022-11-20T15:00:03;4.10;99.90
15013;DHT22;7603;49.432;11.418;2022-11-20T15:02:30;4.10;99.90
15013;DHT22;7603;49.432;11.418;2022-11-20T15:05:00;4.10;99.90
15013;DHT22;7603;49.432;11.418;2022-11-20T15:07:37;4.10;99.90
15013;DHT22;7603;49.432;11.418;2022-11-20T15:10:12;4.10;99.90
15013;DHT22;7603;49.432;11.418;2022-11-20T15:12:52;4.00;99.90
15013;DHT22;7603;49.432;11.418;2022-11-20T15:16:08;4.00;99.90
15013;DHT22;7603;49.432;11.418;2022-11-20T15:18:22;4.10;99.90
15013;DHT22;7603;49.432;11.418;2022-11-20T15:20:48;4.10;99.90
15013;DHT22;7603;49.432;11.418;2022-11-20T15:23:16;4.00;99.90
15013;DHT22;7603;49.432;11.418;2022-11-20T15:25:43;4.00;99.90
15013;DHT22;7603;49.432;11.418;2022-11-20T15:28:21;4.00;99.90
15013;DHT22;7603;49.432;11.418;2022-11-20T15:30:49;4.00;99.90
15013;DHT22;7603;49.432;11.418;2022-11-20T15:33:16;3.90;99.90
15013;DHT22;7603;49.432;11.418;2022-11-20T15:35:43;3.90;99.90
15013;DHT22;7603;49.432;11.418;2022-11-20T15:38:09;3.80;99.90
15013;DHT22;7603;49.432;11.418;2022-11-20T15:40:34;3.90;99.90
15013;DHT22;7603;49.432;11.418;2022-11-20T15:43:00;3.80;99.90
15013;DHT22;7603;49.432;11.418;2022-11-20T15:48:03;3.90;99.90
15013;DHT22;7603;49.432;11.418;2022-11-20T15:53:18;3.80;99.90
15013;DHT22;7603;49.432;11.418;2022-11-20T15:55:44;3.90;99.90
15013;DHT22;7603;49.432;11.418;2022-11-20T15:58:10;3.80;99.90
15013;DHT22;7603;49.432;11.418;2022-11-20T16:00:36;3.90;99.90
15013;DHT22;7603;49.432;11.418;2022-11-20T16:03:01;3.90;99.90
15013;DHT22;7603;49.432;11.418;2022-11-20T16:05:30;3.90;99.90
15013;DHT22;7603;49.432;11.418;2022-11-20T16:07:56;3.90;99.90
15013;DHT22;7603;49.432;11.418;2022-11-20T16:10:22;3.90;99.90
15013;DHT22;7603;49.432;11.418;2022-11-20T16:12:48;3.90;99.90
15013;DHT22;7603;49.432;11.418;2022-11-20T16:15:45;4.00;99.90
15013;DHT22;7603;49.432;11.418;2022-11-20T16:18:19;3.90;99.90
15013;DHT22;7603;49.432;11.418;2022-11-20T16:20:48;3.90;99.90
15013;DHT22;7603;49.432;11.418;2022-11-20T16:23:14;4.00;99.90
15013;DHT22;7603;49.432;11.418;2022-11-20T16:25:42;4.00;99.90
15013;DHT22;7603;49.432;11.418;2022-11-20T16:28:08;4.00;99.90
15013;DHT22;7603;49.432;11.418;2022-11-20T16:30:34;4.00;99.90
15013;DHT22;7603;49.432;11.418;2022-11-20T16:33:02;4.00;99.90
15013;DHT22;7603;49.432;11.418;2022-11-20T16:35:32;4.00;99.90
15013;DHT22;7603;49.432;11.418;2022-11-20T16:37:58;4.00;99.90
15013;DHT22;7603;49.432;11.418;2022-11-20T16:40:24;4.00;99.90
15013;DHT22;7603;49.432;11.418;2022-11-20T16:42:50;3.90;99.90
15013;DHT22;7603;49.432;11.418;2022-11-20T16:45:16;3.90;99.90
15013;DHT22;7603;49.432;11.418;2022-11-20T16:47:42;3.80;99.90
15013;DHT22;7603;49.432;11.418;2022-11-20T16:50:08;3.80;99.90
15013;DHT22;7603;49.432;11.418;2022-11-20T16:52:34;3.70;99.90
15013;DHT22;7603;49.432;11.418;2022-11-20T16:54:59;3.80;99.90
15013;DHT22;7603;49.432;11.418;2022-11-20T16:57:29;3.70;99.90
15013;DHT22;7603;49.432;11.418;2022-11-20T16:59:56;3.70;99.90
15013;DHT22;7603;49.432;11.418;2022-11-20T17:02:22;3.70;99.90
15013;DHT22;7603;49.432;11.418;2022-11-20T17:04:47;3.80;99.90
15013;DHT22;7603;49.432;11.418;2022-11-20T17:07:13;3.70;99.90
15013;DHT22;7603;49.432;11.418;2022-11-20T17:09:39;3.70;99.90
15013;DHT22;7603;49.432;11.418;2022-11-20T17:12:05;3.70;99.90
15013;DHT22;7603;49.432;11.418;2022-11-20T17:14:31;3.70;99.90
15013;DHT22;7603;49.432;11.418;2022-11-20T17:16:58;3.70;99.90
15013;DHT22;7603;49.432;11.418;2022-11-20T17:19:24;3.70;99.90
15013;DHT22;7603;49.432;11.418;2022-11-20T17:21:49;3.70;99.90
15013;DHT22;7603;49.432;11.418;2022-11-20T17:24:15;3.80;99.90
15013;DHT22;7603;49.432;11.418;2022-11-20T17:26:43;3.70;99.90
15013;DHT22;7603;49.432;11.418;2022-11-20T17:29:13;3.70;99.90